Terminal Aerodrome Forecast
Issued by NWS

Home | Current Version | Previous Version | Text Only | Print | Product List | Glossary Off
Versions: 1 2 3 4 5 6 7 8 9 10 11 12

000
FTUS43 KMPX 152334
TAFRWF
TAF
KRWF 152334Z 1600/1624 15017KT P6SM FEW050 BKN090
     FM160200 14013KT P6SM SCT050 OVC080
     FM160400 14010KT P6SM VCSH BKN050 OVC070
     FM160800 15006KT P6SM SCT030 OVC050
     FM161600 23005KT P6SM BKN050 OVC120
     FM162200 28008KT P6SM SCT050 BKN150=

USA.gov is the U.S. government's official web portal to all federal, state and local government web resources and services.